sensor_id;sensor_type;location;lat;lon;timestamp;P1;durP1;ratioP1;P2;durP2;ratioP2
3274;SDS011;1649;53.672;10.064;2023-11-21T00:00:14;46.43;;;18.10;;
3274;SDS011;1649;53.672;10.064;2023-11-21T00:02:40;38.43;;;17.60;;
3274;SDS011;1649;53.672;10.064;2023-11-21T00:05:07;44.70;;;16.40;;
3274;SDS011;1649;53.672;10.064;2023-11-21T00:07:34;52.53;;;19.50;;
3274;SDS011;1649;53.672;10.064;2023-11-21T00:10:00;37.67;;;16.37;;
3274;SDS011;1649;53.672;10.064;2023-11-21T00:12:25;43.60;;;16.53;;
3274;SDS011;1649;53.672;10.064;2023-11-21T00:14:51;43.93;;;18.27;;
3274;SDS011;1649;53.672;10.064;2023-11-21T00:17:16;41.77;;;16.67;;
3274;SDS011;1649;53.672;10.064;2023-11-21T00:19:42;46.90;;;17.33;;
3274;SDS011;1649;53.672;10.064;2023-11-21T00:22:08;39.57;;;15.60;;
3274;SDS011;1649;53.672;10.064;2023-11-21T00:24:33;41.70;;;16.23;;
3274;SDS011;1649;53.672;10.064;2023-11-21T00:26:59;41.37;;;17.17;;
3274;SDS011;1649;53.672;10.064;2023-11-21T00:29:25;42.40;;;17.53;;
3274;SDS011;1649;53.672;10.064;2023-11-21T00:31:51;44.63;;;17.70;;
3274;SDS011;1649;53.672;10.064;2023-11-21T00:34:16;44.20;;;18.97;;
3274;SDS011;1649;53.672;10.064;2023-11-21T00:36:42;43.93;;;17.63;;
3274;SDS011;1649;53.672;10.064;2023-11-21T00:39:07;44.30;;;17.70;;
3274;SDS011;1649;53.672;10.064;2023-11-21T00:41:33;45.70;;;17.87;;
3274;SDS011;1649;53.672;10.064;2023-11-21T00:43:59;52.43;;;18.90;;
3274;SDS011;1649;53.672;10.064;2023-11-21T00:46:25;40.50;;;16.90;;
3274;SDS011;1649;53.672;10.064;2023-11-21T00:48:54;44.40;;;17.77;;
3274;SDS011;1649;53.672;10.064;2023-11-21T00:51:20;46.43;;;18.80;;
3274;SDS011;1649;53.672;10.064;2023-11-21T00:53:47;50.47;;;18.33;;
3274;SDS011;1649;53.672;10.064;2023-11-21T00:56:12;52.20;;;19.97;;
3274;SDS011;1649;53.672;10.064;2023-11-21T00:58:38;43.57;;;17.17;;
3274;SDS011;1649;53.672;10.064;2023-11-21T01:01:04;48.93;;;18.87;;
3274;SDS011;1649;53.672;10.064;2023-11-21T01:03:29;39.57;;;17.30;;
3274;SDS011;1649;53.672;10.064;2023-11-21T01:05:55;37.70;;;16.20;;
3274;SDS011;1649;53.672;10.064;2023-11-21T01:08:21;38.90;;;16.63;;
3274;SDS011;1649;53.672;10.064;2023-11-21T01:10:46;34.87;;;15.10;;
3274;SDS011;1649;53.672;10.064;2023-11-21T01:13:14;34.33;;;14.63;;
3274;SDS011;1649;53.672;10.064;2023-11-21T01:15:40;39.03;;;17.17;;
3274;SDS011;1649;53.672;10.064;2023-11-21T01:18:06;35.70;;;15.80;;
3274;SDS011;1649;53.672;10.064;2023-11-21T01:20:33;39.47;;;16.67;;
3274;SDS011;1649;53.672;10.064;2023-11-21T01:22:59;40.53;;;15.30;;
3274;SDS011;1649;53.672;10.064;2023-11-21T01:25:24;37.40;;;16.30;;
3274;SDS011;1649;53.672;10.064;2023-11-21T01:27:50;36.03;;;14.90;;
3274;SDS011;1649;53.672;10.064;2023-11-21T01:30:17;37.13;;;16.40;;
3274;SDS011;1649;53.672;10.064;2023-11-21T01:32:43;33.27;;;14.00;;
3274;SDS011;1649;53.672;10.064;2023-11-21T01:35:08;41.90;;;17.00;;
3274;SDS011;1649;53.672;10.064;2023-11-21T01:37:35;38.40;;;16.40;;
3274;SDS011;1649;53.672;10.064;2023-11-21T01:40:02;38.30;;;15.00;;
3274;SDS011;1649;53.672;10.064;2023-11-21T01:42:30;36.40;;;15.90;;
3274;SDS011;1649;53.672;10.064;2023-11-21T01:44:56;35.80;;;15.80;;
3274;SDS011;1649;53.672;10.064;2023-11-21T01:47:21;34.00;;;14.70;;
3274;SDS011;1649;53.672;10.064;2023-11-21T01:49:47;31.83;;;15.60;;
3274;SDS011;1649;53.672;10.064;2023-11-21T01:52:13;36.30;;;16.17;;
3274;SDS011;1649;53.672;10.064;2023-11-21T01:54:39;29.50;;;13.93;;
3274;SDS011;1649;53.672;10.064;2023-11-21T01:57:07;32.37;;;13.50;;
3274;SDS011;1649;53.672;10.064;2023-11-21T01:59:39;29.77;;;13.20;;
3274;SDS011;1649;53.672;10.064;2023-11-21T02:02:07;30.10;;;12.30;;
3274;SDS011;1649;53.672;10.064;2023-11-21T02:04:33;29.40;;;12.97;;
3274;SDS011;1649;53.672;10.064;2023-11-21T02:06:59;29.30;;;12.37;;
3274;SDS011;1649;53.672;10.064;2023-11-21T02:09:26;27.40;;;12.47;;
3274;SDS011;1649;53.672;10.064;2023-11-21T02:11:52;23.40;;;10.77;;
3274;SDS011;1649;53.672;10.064;2023-11-21T02:14:18;23.30;;;10.77;;
3274;SDS011;1649;53.672;10.064;2023-11-21T02:16:48;26.03;;;11.73;;
3274;SDS011;1649;53.672;10.064;2023-11-21T02:19:14;24.47;;;11.60;;
3274;SDS011;1649;53.672;10.064;2023-11-21T02:21:48;22.03;;;11.00;;
3274;SDS011;1649;53.672;10.064;2023-11-21T02:24:16;23.70;;;11.90;;
3274;SDS011;1649;53.672;10.064;2023-11-21T02:26:45;27.13;;;11.50;;
3274;SDS011;1649;53.672;10.064;2023-11-21T02:29:11;23.17;;;12.10;;
3274;SDS011;1649;53.672;10.064;2023-11-21T02:31:38;22.13;;;11.80;;
3274;SDS011;1649;53.672;10.064;2023-11-21T02:34:12;22.43;;;10.80;;
3274;SDS011;1649;53.672;10.064;2023-11-21T02:36:42;24.67;;;10.77;;
3274;SDS011;1649;53.672;10.064;2023-11-21T02:39:10;20.63;;;11.10;;
3274;SDS011;1649;53.672;10.064;2023-11-21T02:41:39;23.00;;;11.50;;
3274;SDS011;1649;53.672;10.064;2023-11-21T02:44:08;19.00;;;9.53;;
3274;SDS011;1649;53.672;10.064;2023-11-21T02:46:34;21.37;;;11.20;;
3274;SDS011;1649;53.672;10.064;2023-11-21T02:49:01;16.70;;;10.03;;
3274;SDS011;1649;53.672;10.064;2023-11-21T02:51:35;21.80;;;10.80;;
3274;SDS011;1649;53.672;10.064;2023-11-21T02:54:00;22.20;;;9.90;;
3274;SDS011;1649;53.672;10.064;2023-11-21T02:56:28;22.73;;;10.00;;
3274;SDS011;1649;53.672;10.064;2023-11-21T02:58:57;20.90;;;9.90;;
3274;SDS011;1649;53.672;10.064;2023-11-21T03:01:24;18.47;;;10.60;;
3274;SDS011;1649;53.672;10.064;2023-11-21T03:03:50;21.60;;;10.10;;
3274;SDS011;1649;53.672;10.064;2023-11-21T03:06:19;19.57;;;9.93;;
3274;SDS011;1649;53.672;10.064;2023-11-21T03:08:45;18.70;;;10.07;;
3274;SDS011;1649;53.672;10.064;2023-11-21T03:11:11;19.80;;;9.13;;
3274;SDS011;1649;53.672;10.064;2023-11-21T03:13:38;22.97;;;11.00;;
3274;SDS011;1649;53.672;10.064;2023-11-21T03:16:10;21.10;;;9.83;;
3274;SDS011;1649;53.672;10.064;2023-11-21T03:18:36;19.50;;;9.97;;
3274;SDS011;1649;53.672;10.064;2023-11-21T03:21:05;18.70;;;9.47;;
3274;SDS011;1649;53.672;10.064;2023-11-21T03:23:31;21.47;;;10.53;;
3274;SDS011;1649;53.672;10.064;2023-11-21T03:25:57;17.63;;;8.70;;
3274;SDS011;1649;53.672;10.064;2023-11-21T03:28:23;19.83;;;11.37;;
3274;SDS011;1649;53.672;10.064;2023-11-21T03:30:48;18.47;;;10.33;;
3274;SDS011;1649;53.672;10.064;2023-11-21T03:33:14;17.43;;;9.90;;
3274;SDS011;1649;53.672;10.064;2023-11-21T03:35:39;18.17;;;9.67;;
3274;SDS011;1649;53.672;10.064;2023-11-21T03:38:06;17.40;;;9.80;;
3274;SDS011;1649;53.672;10.064;2023-11-21T03:40:32;22.60;;;10.43;;
3274;SDS011;1649;53.672;10.064;2023-11-21T03:42:58;18.50;;;10.10;;
3274;SDS011;1649;53.672;10.064;2023-11-21T03:45:23;18.83;;;9.20;;
3274;SDS011;1649;53.672;10.064;2023-11-21T03:47:49;20.80;;;9.93;;
3274;SDS011;1649;53.672;10.064;2023-11-21T03:50:15;19.50;;;10.37;;
3274;SDS011;1649;53.672;10.064;2023-11-21T03:52:40;21.03;;;11.37;;
3274;SDS011;1649;53.672;10.064;2023-11-21T03:55:06;24.47;;;10.90;;
3274;SDS011;1649;53.672;10.064;2023-11-21T03:57:32;18.27;;;10.30;;
3274;SDS011;1649;53.672;10.064;2023-11-21T03:59:57;18.80;;;10.43;;
3274;SDS011;1649;53.672;10.064;2023-11-21T04:02:23;25.70;;;10.80;;
3274;SDS011;1649;53.672;10.064;2023-11-21T04:04:50;19.70;;;10.17;;
3274;SDS011;1649;53.672;10.064;2023-11-21T04:07:16;21.70;;;11.27;;
3274;SDS011;1649;53.672;10.064;2023-11-21T04:09:42;18.77;;;10.07;;
3274;SDS011;1649;53.672;10.064;2023-11-21T04:12:08;17.87;;;10.50;;
3274;SDS011;1649;53.672;10.064;2023-11-21T04:14:38;20.77;;;11.30;;
3274;SDS011;1649;53.672;10.064;2023-11-21T04:17:03;20.20;;;10.07;;
3274;SDS011;1649;53.672;10.064;2023-11-21T04:19:29;18.37;;;10.67;;
3274;SDS011;1649;53.672;10.064;2023-11-21T04:21:55;18.13;;;9.90;;
3274;SDS011;1649;53.672;10.064;2023-11-21T04:24:20;17.83;;;10.30;;
3274;SDS011;1649;53.672;10.064;2023-11-21T04:26:46;18.33;;;9.67;;
3274;SDS011;1649;53.672;10.064;2023-11-21T04:29:11;17.07;;;10.07;;
3274;SDS011;1649;53.672;10.064;2023-11-21T04:31:37;21.00;;;11.40;;
3274;SDS011;1649;53.672;10.064;2023-11-21T04:34:02;18.50;;;10.27;;
3274;SDS011;1649;53.672;10.064;2023-11-21T04:36:29;17.83;;;9.70;;
3274;SDS011;1649;53.672;10.064;2023-11-21T04:38:55;18.13;;;10.60;;
3274;SDS011;1649;53.672;10.064;2023-11-21T04:41:21;19.33;;;10.27;;
3274;SDS011;1649;53.672;10.064;2023-11-21T04:43:46;19.03;;;9.60;;
3274;SDS011;1649;53.672;10.064;2023-11-21T04:46:12;18.40;;;10.17;;
3274;SDS011;1649;53.672;10.064;2023-11-21T04:48:38;16.80;;;9.40;;
3274;SDS011;1649;53.672;10.064;2023-11-21T04:51:03;17.57;;;9.90;;
3274;SDS011;1649;53.672;10.064;2023-11-21T04:53:29;18.03;;;9.93;;
3274;SDS011;1649;53.672;10.064;2023-11-21T04:55:55;20.50;;;9.73;;
3274;SDS011;1649;53.672;10.064;2023-11-21T04:58:20;15.80;;;8.83;;
3274;SDS011;1649;53.672;10.064;2023-11-21T05:00:46;22.20;;;9.40;;
3274;SDS011;1649;53.672;10.064;2023-11-21T05:03:11;16.43;;;8.80;;
3274;SDS011;1649;53.672;10.064;2023-11-21T05:05:37;20.47;;;11.07;;
3274;SDS011;1649;53.672;10.064;2023-11-21T05:08:03;16.80;;;9.70;;
3274;SDS011;1649;53.672;10.064;2023-11-21T05:10:29;18.90;;;9.27;;
3274;SDS011;1649;53.672;10.064;2023-11-21T05:12:55;18.00;;;8.80;;
3274;SDS011;1649;53.672;10.064;2023-11-21T05:15:21;17.10;;;9.27;;
3274;SDS011;1649;53.672;10.064;2023-11-21T05:17:46;19.87;;;10.10;;
3274;SDS011;1649;53.672;10.064;2023-11-21T05:20:15;17.60;;;9.30;;
3274;SDS011;1649;53.672;10.064;2023-11-21T05:22:46;16.50;;;9.10;;
3274;SDS011;1649;53.672;10.064;2023-11-21T05:25:14;18.20;;;9.90;;
3274;SDS011;1649;53.672;10.064;2023-11-21T05:27:41;18.33;;;9.40;;
3274;SDS011;1649;53.672;10.064;2023-11-21T05:30:07;15.90;;;9.47;;
3274;SDS011;1649;53.672;10.064;2023-11-21T05:32:36;20.53;;;10.37;;
3274;SDS011;1649;53.672;10.064;2023-11-21T05:35:02;27.33;;;10.07;;
3274;SDS011;1649;53.672;10.064;2023-11-21T05:37:28;16.70;;;9.70;;
3274;SDS011;1649;53.672;10.064;2023-11-21T05:39:54;19.43;;;10.40;;
3274;SDS011;1649;53.672;10.064;2023-11-21T05:42:24;16.07;;;9.37;;
3274;SDS011;1649;53.672;10.064;2023-11-21T05:44:50;17.33;;;9.80;;
3274;SDS011;1649;53.672;10.064;2023-11-21T05:47:15;19.50;;;9.73;;
3274;SDS011;1649;53.672;10.064;2023-11-21T05:49:41;16.83;;;9.63;;
3274;SDS011;1649;53.672;10.064;2023-11-21T05:52:07;18.40;;;9.90;;
3274;SDS011;1649;53.672;10.064;2023-11-21T05:54:32;15.03;;;9.07;;
3274;SDS011;1649;53.672;10.064;2023-11-21T05:56:58;17.87;;;9.20;;
3274;SDS011;1649;53.672;10.064;2023-11-21T05:59:24;16.10;;;9.43;;
3274;SDS011;1649;53.672;10.064;2023-11-21T06:01:49;17.80;;;9.73;;
3274;SDS011;1649;53.672;10.064;2023-11-21T06:04:15;16.60;;;10.07;;
3274;SDS011;1649;53.672;10.064;2023-11-21T06:06:40;18.60;;;9.30;;
3274;SDS011;1649;53.672;10.064;2023-11-21T06:09:06;18.00;;;10.20;;
3274;SDS011;1649;53.672;10.064;2023-11-21T06:11:34;19.80;;;9.70;;
3274;SDS011;1649;53.672;10.064;2023-11-21T06:13:59;16.57;;;10.17;;
3274;SDS011;1649;53.672;10.064;2023-11-21T06:16:25;17.07;;;9.60;;
3274;SDS011;1649;53.672;10.064;2023-11-21T06:18:50;19.00;;;9.97;;
3274;SDS011;1649;53.672;10.064;2023-11-21T06:21:16;17.40;;;10.07;;
3274;SDS011;1649;53.672;10.064;2023-11-21T06:23:42;16.10;;;9.33;;
3274;SDS011;1649;53.672;10.064;2023-11-21T06:26:08;17.80;;;9.30;;
3274;SDS011;1649;53.672;10.064;2023-11-21T06:28:34;17.73;;;9.80;;
3274;SDS011;1649;53.672;10.064;2023-11-21T06:31:01;15.10;;;9.30;;
3274;SDS011;1649;53.672;10.064;2023-11-21T06:33:33;17.40;;;8.97;;
3274;SDS011;1649;53.672;10.064;2023-11-21T06:35:58;16.50;;;8.93;;
3274;SDS011;1649;53.672;10.064;2023-11-21T06:38:28;19.60;;;9.67;;
3274;SDS011;1649;53.672;10.064;2023-11-21T06:40:55;19.83;;;10.60;;
3274;SDS011;1649;53.672;10.064;2023-11-21T06:43:20;17.10;;;10.00;;
3274;SDS011;1649;53.672;10.064;2023-11-21T06:45:46;19.10;;;10.40;;
3274;SDS011;1649;53.672;10.064;2023-11-21T06:48:12;18.73;;;11.13;;
3274;SDS011;1649;53.672;10.064;2023-11-21T06:50:38;22.30;;;11.03;;
3274;SDS011;1649;53.672;10.064;2023-11-21T06:53:03;18.37;;;10.40;;
3274;SDS011;1649;53.672;10.064;2023-11-21T06:55:31;17.13;;;9.50;;
3274;SDS011;1649;53.672;10.064;2023-11-21T06:57:57;15.23;;;9.10;;
3274;SDS011;1649;53.672;10.064;2023-11-21T07:00:23;17.97;;;9.87;;
3274;SDS011;1649;53.672;10.064;2023-11-21T07:02:48;17.00;;;9.97;;
3274;SDS011;1649;53.672;10.064;2023-11-21T07:05:14;18.50;;;11.00;;
3274;SDS011;1649;53.672;10.064;2023-11-21T07:07:40;18.60;;;10.50;;
3274;SDS011;1649;53.672;10.064;2023-11-21T07:10:06;16.00;;;9.10;;
3274;SDS011;1649;53.672;10.064;2023-11-21T07:12:33;15.00;;;9.00;;
3274;SDS011;1649;53.672;10.064;2023-11-21T07:14:59;14.97;;;8.00;;
3274;SDS011;1649;53.672;10.064;2023-11-21T07:17:24;15.87;;;9.03;;
3274;SDS011;1649;53.672;10.064;2023-11-21T07:19:50;16.57;;;8.57;;
3274;SDS011;1649;53.672;10.064;2023-11-21T07:22:16;17.40;;;9.23;;
3274;SDS011;1649;53.672;10.064;2023-11-21T07:24:47;14.53;;;8.57;;
3274;SDS011;1649;53.672;10.064;2023-11-21T07:27:16;15.43;;;8.50;;
3274;SDS011;1649;53.672;10.064;2023-11-21T07:29:42;13.87;;;8.10;;
3274;SDS011;1649;53.672;10.064;2023-11-21T07:32:07;14.13;;;8.43;;
3274;SDS011;1649;53.672;10.064;2023-11-21T07:34:34;15.43;;;8.03;;
3274;SDS011;1649;53.672;10.064;2023-11-21T07:37:00;13.37;;;8.30;;
3274;SDS011;1649;53.672;10.064;2023-11-21T07:39:26;15.77;;;8.07;;
3274;SDS011;1649;53.672;10.064;2023-11-21T07:41:52;14.20;;;7.70;;
3274;SDS011;1649;53.672;10.064;2023-11-21T07:44:17;14.70;;;8.70;;
3274;SDS011;1649;53.672;10.064;2023-11-21T07:46:44;14.30;;;8.60;;
3274;SDS011;1649;53.672;10.064;2023-11-21T07:49:10;14.20;;;8.27;;
3274;SDS011;1649;53.672;10.064;2023-11-21T07:51:35;15.10;;;9.33;;
3274;SDS011;1649;53.672;10.064;2023-11-21T07:54:01;14.80;;;8.50;;
3274;SDS011;1649;53.672;10.064;2023-11-21T07:56:26;14.60;;;7.97;;
3274;SDS011;1649;53.672;10.064;2023-11-21T07:58:52;16.93;;;8.30;;
3274;SDS011;1649;53.672;10.064;2023-11-21T08:01:17;14.40;;;7.27;;
3274;SDS011;1649;53.672;10.064;2023-11-21T08:03:43;13.07;;;7.10;;
3274;SDS011;1649;53.672;10.064;2023-11-21T08:06:09;15.70;;;8.10;;
3274;SDS011;1649;53.672;10.064;2023-11-21T08:08:34;14.43;;;7.73;;
3274;SDS011;1649;53.672;10.064;2023-11-21T08:11:00;12.17;;;7.10;;
3274;SDS011;1649;53.672;10.064;2023-11-21T08:13:27;13.40;;;7.50;;
3274;SDS011;1649;53.672;10.064;2023-11-21T08:15:56;16.20;;;7.30;;
3274;SDS011;1649;53.672;10.064;2023-11-21T08:18:28;12.60;;;7.30;;
3274;SDS011;1649;53.672;10.064;2023-11-21T08:20:54;13.50;;;7.53;;
3274;SDS011;1649;53.672;10.064;2023-11-21T08:23:20;14.10;;;7.03;;
3274;SDS011;1649;53.672;10.064;2023-11-21T08:25:50;16.17;;;7.50;;
3274;SDS011;1649;53.672;10.064;2023-11-21T08:28:16;13.87;;;7.70;;
3274;SDS011;1649;53.672;10.064;2023-11-21T08:30:42;14.60;;;7.53;;
3274;SDS011;1649;53.672;10.064;2023-11-21T08:33:07;12.67;;;7.70;;
3274;SDS011;1649;53.672;10.064;2023-11-21T08:35:33;11.27;;;6.93;;
3274;SDS011;1649;53.672;10.064;2023-11-21T08:37:59;11.13;;;7.30;;
3274;SDS011;1649;53.672;10.064;2023-11-21T08:40:25;12.73;;;7.50;;
3274;SDS011;1649;53.672;10.064;2023-11-21T08:42:50;12.30;;;6.53;;
3274;SDS011;1649;53.672;10.064;2023-11-21T08:45:17;11.27;;;5.93;;
3274;SDS011;1649;53.672;10.064;2023-11-21T08:47:44;12.03;;;6.20;;
3274;SDS011;1649;53.672;10.064;2023-11-21T08:50:10;9.80;;;4.47;;
3274;SDS011;1649;53.672;10.064;2023-11-21T08:52:37;9.70;;;4.40;;
3274;SDS011;1649;53.672;10.064;2023-11-21T08:55:05;9.37;;;5.20;;
3274;SDS011;1649;53.672;10.064;2023-11-21T08:57:34;8.57;;;4.73;;
3274;SDS011;1649;53.672;10.064;2023-11-21T09:00:01;11.63;;;4.80;;
3274;SDS011;1649;53.672;10.064;2023-11-21T09:02:28;8.37;;;4.70;;
3274;SDS011;1649;53.672;10.064;2023-11-21T09:04:53;8.43;;;5.00;;
3274;SDS011;1649;53.672;10.064;2023-11-21T09:07:19;8.33;;;4.50;;
3274;SDS011;1649;53.672;10.064;2023-11-21T09:09:47;9.23;;;4.90;;
3274;SDS011;1649;53.672;10.064;2023-11-21T09:12:14;7.20;;;4.40;;
3274;SDS011;1649;53.672;10.064;2023-11-21T09:14:40;9.37;;;4.43;;
3274;SDS011;1649;53.672;10.064;2023-11-21T09:17:07;8.20;;;4.83;;
3274;SDS011;1649;53.672;10.064;2023-11-21T09:19:36;8.60;;;4.63;;
3274;SDS011;1649;53.672;10.064;2023-11-21T09:22:02;8.20;;;4.70;;
3274;SDS011;1649;53.672;10.064;2023-11-21T09:24:28;8.67;;;4.90;;
3274;SDS011;1649;53.672;10.064;2023-11-21T09:26:54;9.37;;;4.90;;
3274;SDS011;1649;53.672;10.064;2023-11-21T09:29:19;9.33;;;4.80;;
3274;SDS011;1649;53.672;10.064;2023-11-21T09:31:45;10.10;;;5.00;;
3274;SDS011;1649;53.672;10.064;2023-11-21T09:34:10;10.50;;;5.10;;
3274;SDS011;1649;53.672;10.064;2023-11-21T09:36:36;9.70;;;5.00;;
3274;SDS011;1649;53.672;10.064;2023-11-21T09:39:04;10.63;;;5.80;;
3274;SDS011;1649;53.672;10.064;2023-11-21T09:41:51;10.20;;;6.00;;
3274;SDS011;1649;53.672;10.064;2023-11-21T09:44:22;10.37;;;6.17;;
3274;SDS011;1649;53.672;10.064;2023-11-21T09:46:58;9.97;;;5.30;;
3274;SDS011;1649;53.672;10.064;2023-11-21T09:49:24;11.07;;;6.50;;
3274;SDS011;1649;53.672;10.064;2023-11-21T09:51:53;11.20;;;6.73;;
3274;SDS011;1649;53.672;10.064;2023-11-21T09:54:21;11.70;;;6.33;;
3274;SDS011;1649;53.672;10.064;2023-11-21T09:56:46;10.83;;;5.90;;
3274;SDS011;1649;53.672;10.064;2023-11-21T09:59:13;11.33;;;6.97;;
3274;SDS011;1649;53.672;10.064;2023-11-21T10:01:40;11.70;;;5.93;;
3274;SDS011;1649;53.672;10.064;2023-11-21T10:04:07;8.00;;;4.80;;
3274;SDS011;1649;53.672;10.064;2023-11-21T10:06:37;8.20;;;4.90;;
3274;SDS011;1649;53.672;10.064;2023-11-21T10:09:04;8.97;;;4.93;;
3274;SDS011;1649;53.672;10.064;2023-11-21T10:11:36;10.63;;;5.20;;
3274;SDS011;1649;53.672;10.064;2023-11-21T10:14:07;10.20;;;5.10;;
3274;SDS011;1649;53.672;10.064;2023-11-21T10:16:36;8.10;;;5.07;;
3274;SDS011;1649;53.672;10.064;2023-11-21T10:19:03;8.00;;;4.53;;
3274;SDS011;1649;53.672;10.064;2023-11-21T10:21:31;8.80;;;4.73;;
3274;SDS011;1649;53.672;10.064;2023-11-21T10:23:58;8.30;;;5.10;;
3274;SDS011;1649;53.672;10.064;2023-11-21T10:26:23;9.23;;;4.70;;
3274;SDS011;1649;53.672;10.064;2023-11-21T10:28:58;8.57;;;4.73;;
3274;SDS011;1649;53.672;10.064;2023-11-21T10:31:26;8.13;;;5.70;;
3274;SDS011;1649;53.672;10.064;2023-11-21T10:33:52;8.80;;;5.17;;
3274;SDS011;1649;53.672;10.064;2023-11-21T10:36:25;8.97;;;5.43;;
3274;SDS011;1649;53.672;10.064;2023-11-21T10:38:52;11.00;;;5.27;;
3274;SDS011;1649;53.672;10.064;2023-11-21T10:41:18;7.83;;;4.70;;
3274;SDS011;1649;53.672;10.064;2023-11-21T10:43:44;8.33;;;4.57;;
3274;SDS011;1649;53.672;10.064;2023-11-21T10:46:10;8.10;;;4.93;;
3274;SDS011;1649;53.672;10.064;2023-11-21T10:48:35;10.50;;;5.00;;
3274;SDS011;1649;53.672;10.064;2023-11-21T10:51:06;8.50;;;4.40;;
3274;SDS011;1649;53.672;10.064;2023-11-21T10:53:32;7.53;;;4.83;;
3274;SDS011;1649;53.672;10.064;2023-11-21T10:56:08;7.53;;;4.90;;
3274;SDS011;1649;53.672;10.064;2023-11-21T10:58:36;8.93;;;5.27;;
3274;SDS011;1649;53.672;10.064;2023-11-21T11:01:03;8.10;;;4.37;;
3274;SDS011;1649;53.672;10.064;2023-11-21T11:03:31;15.40;;;5.00;;
3274;SDS011;1649;53.672;10.064;2023-11-21T11:05:58;8.67;;;4.90;;
3274;SDS011;1649;53.672;10.064;2023-11-21T11:08:24;8.33;;;4.90;;
3274;SDS011;1649;53.672;10.064;2023-11-21T11:10:53;8.17;;;4.50;;
3274;SDS011;1649;53.672;10.064;2023-11-21T11:13:19;7.60;;;4.63;;
3274;SDS011;1649;53.672;10.064;2023-11-21T11:15:48;11.30;;;5.43;;
3274;SDS011;1649;53.672;10.064;2023-11-21T11:18:15;8.70;;;5.07;;
3274;SDS011;1649;53.672;10.064;2023-11-21T11:20:42;10.10;;;4.53;;
3274;SDS011;1649;53.672;10.064;2023-11-21T11:23:21;8.93;;;4.30;;
3274;SDS011;1649;53.672;10.064;2023-11-21T11:26:24;7.50;;;4.07;;
3274;SDS011;1649;53.672;10.064;2023-11-21T11:29:14;7.90;;;4.10;;
3274;SDS011;1649;53.672;10.064;2023-11-21T11:34:55;7.20;;;4.40;;
3274;SDS011;1649;53.672;10.064;2023-11-21T11:37:39;8.67;;;4.47;;
3274;SDS011;1649;53.672;10.064;2023-11-21T11:40:06;7.33;;;4.00;;
3274;SDS011;1649;53.672;10.064;2023-11-21T11:42:32;7.97;;;4.47;;
3274;SDS011;1649;53.672;10.064;2023-11-21T11:44:57;8.70;;;4.73;;
3274;SDS011;1649;53.672;10.064;2023-11-21T11:47:27;7.90;;;4.70;;
3274;SDS011;1649;53.672;10.064;2023-11-21T11:50:04;7.87;;;4.53;;
3274;SDS011;1649;53.672;10.064;2023-11-21T11:52:46;11.20;;;4.93;;
3274;SDS011;1649;53.672;10.064;2023-11-21T11:55:14;7.70;;;4.27;;
3274;SDS011;1649;53.672;10.064;2023-11-21T11:57:43;7.77;;;4.77;;
3274;SDS011;1649;53.672;10.064;2023-11-21T12:00:41;8.20;;;5.57;;
3274;SDS011;1649;53.672;10.064;2023-11-21T12:03:07;9.33;;;5.03;;
3274;SDS011;1649;53.672;10.064;2023-11-21T12:05:34;8.90;;;4.93;;
3274;SDS011;1649;53.672;10.064;2023-11-21T12:08:04;9.30;;;5.50;;
3274;SDS011;1649;53.672;10.064;2023-11-21T12:10:31;9.43;;;5.80;;
3274;SDS011;1649;53.672;10.064;2023-11-21T12:12:59;9.80;;;5.27;;
3274;SDS011;1649;53.672;10.064;2023-11-21T12:15:26;10.43;;;6.57;;
3274;SDS011;1649;53.672;10.064;2023-11-21T12:17:55;9.50;;;5.10;;
3274;SDS011;1649;53.672;10.064;2023-11-21T12:20:21;8.63;;;5.27;;
3274;SDS011;1649;53.672;10.064;2023-11-21T12:22:51;9.00;;;5.30;;
3274;SDS011;1649;53.672;10.064;2023-11-21T12:25:19;8.90;;;5.10;;
3274;SDS011;1649;53.672;10.064;2023-11-21T12:27:46;10.80;;;5.30;;
3274;SDS011;1649;53.672;10.064;2023-11-21T12:30:17;8.43;;;5.17;;
3274;SDS011;1649;53.672;10.064;2023-11-21T12:32:47;10.70;;;5.50;;
3274;SDS011;1649;53.672;10.064;2023-11-21T12:35:15;11.07;;;5.47;;
3274;SDS011;1649;53.672;10.064;2023-11-21T12:37:44;8.97;;;5.27;;
3274;SDS011;1649;53.672;10.064;2023-11-21T12:40:10;8.20;;;5.37;;
3274;SDS011;1649;53.672;10.064;2023-11-21T12:42:39;9.20;;;5.93;;
3274;SDS011;1649;53.672;10.064;2023-11-21T12:45:18;9.47;;;4.93;;
3274;SDS011;1649;53.672;10.064;2023-11-21T12:47:48;9.90;;;5.07;;
3274;SDS011;1649;53.672;10.064;2023-11-21T12:50:20;7.20;;;4.77;;
3274;SDS011;1649;53.672;10.064;2023-11-21T12:52:48;8.83;;;5.20;;
3274;SDS011;1649;53.672;10.064;2023-11-21T12:55:19;7.10;;;4.73;;
3274;SDS011;1649;53.672;10.064;2023-11-21T12:57:50;11.17;;;5.97;;
3274;SDS011;1649;53.672;10.064;2023-11-21T13:00:16;10.83;;;5.40;;
3274;SDS011;1649;53.672;10.064;2023-11-21T13:02:55;8.40;;;4.73;;
3274;SDS011;1649;53.672;10.064;2023-11-21T13:05:28;9.17;;;5.07;;
3274;SDS011;1649;53.672;10.064;2023-11-21T13:07:56;8.30;;;4.63;;
3274;SDS011;1649;53.672;10.064;2023-11-21T13:10:23;9.13;;;5.37;;
3274;SDS011;1649;53.672;10.064;2023-11-21T13:12:55;8.80;;;5.63;;
3274;SDS011;1649;53.672;10.064;2023-11-21T13:15:23;11.13;;;5.13;;
3274;SDS011;1649;53.672;10.064;2023-11-21T13:17:49;10.30;;;5.60;;
3274;SDS011;1649;53.672;10.064;2023-11-21T13:20:16;10.93;;;5.00;;
3274;SDS011;1649;53.672;10.064;2023-11-21T13:22:55;8.30;;;5.60;;
3274;SDS011;1649;53.672;10.064;2023-11-21T13:25:25;8.57;;;5.27;;
3274;SDS011;1649;53.672;10.064;2023-11-21T13:27:56;8.93;;;4.83;;
3274;SDS011;1649;53.672;10.064;2023-11-21T13:30:24;8.87;;;5.20;;
3274;SDS011;1649;53.672;10.064;2023-11-21T13:32:58;8.20;;;4.70;;
3274;SDS011;1649;53.672;10.064;2023-11-21T13:35:27;9.80;;;5.23;;
3274;SDS011;1649;53.672;10.064;2023-11-21T13:38:06;8.00;;;4.80;;
3274;SDS011;1649;53.672;10.064;2023-11-21T13:40:34;9.43;;;4.50;;
3274;SDS011;1649;53.672;10.064;2023-11-21T13:43:07;7.83;;;4.77;;
3274;SDS011;1649;53.672;10.064;2023-11-21T13:45:35;8.70;;;4.90;;
3274;SDS011;1649;53.672;10.064;2023-11-21T13:48:01;9.33;;;5.53;;
3274;SDS011;1649;53.672;10.064;2023-11-21T13:50:27;7.60;;;4.20;;
3274;SDS011;1649;53.672;10.064;2023-11-21T13:53:00;8.00;;;4.93;;
3274;SDS011;1649;53.672;10.064;2023-11-21T13:55:42;9.90;;;5.30;;
3274;SDS011;1649;53.672;10.064;2023-11-21T13:58:10;8.60;;;5.27;;
3274;SDS011;1649;53.672;10.064;2023-11-21T14:00:41;9.17;;;5.37;;
3274;SDS011;1649;53.672;10.064;2023-11-21T14:03:11;9.10;;;5.30;;
3274;SDS011;1649;53.672;10.064;2023-11-21T14:05:47;13.33;;;4.67;;
3274;SDS011;1649;53.672;10.064;2023-11-21T14:08:17;9.60;;;4.60;;
3274;SDS011;1649;53.672;10.064;2023-11-21T14:10:46;7.43;;;3.93;;
3274;SDS011;1649;53.672;10.064;2023-11-21T14:13:18;8.83;;;4.47;;
3274;SDS011;1649;53.672;10.064;2023-11-21T14:15:48;7.63;;;4.23;;
3274;SDS011;1649;53.672;10.064;2023-11-21T14:18:16;7.83;;;3.90;;
3274;SDS011;1649;53.672;10.064;2023-11-21T14:20:42;8.77;;;3.97;;
3274;SDS011;1649;53.672;10.064;2023-11-21T14:23:09;6.50;;;3.80;;
3274;SDS011;1649;53.672;10.064;2023-11-21T14:25:35;7.60;;;3.93;;
3274;SDS011;1649;53.672;10.064;2023-11-21T14:28:02;9.70;;;3.33;;
3274;SDS011;1649;53.672;10.064;2023-11-21T14:30:28;6.63;;;3.40;;
3274;SDS011;1649;53.672;10.064;2023-11-21T14:32:56;7.20;;;3.23;;
3274;SDS011;1649;53.672;10.064;2023-11-21T14:35:23;9.13;;;3.57;;
3274;SDS011;1649;53.672;10.064;2023-11-21T14:37:48;7.30;;;2.97;;
3274;SDS011;1649;53.672;10.064;2023-11-21T14:40:14;8.63;;;3.30;;
3274;SDS011;1649;53.672;10.064;2023-11-21T14:42:41;6.00;;;2.70;;
3274;SDS011;1649;53.672;10.064;2023-11-21T14:45:07;6.90;;;3.47;;
3274;SDS011;1649;53.672;10.064;2023-11-21T14:47:33;6.87;;;3.10;;
3274;SDS011;1649;53.672;10.064;2023-11-21T14:50:00;6.80;;;3.37;;
3274;SDS011;1649;53.672;10.064;2023-11-21T14:52:45;8.97;;;4.50;;